METAR Data
IDs: Format: Raw Decoded Include TAF

Data at: 0256 UTC 24 Oct 2019

METAR for:KSHL (Sheldon Muni, IA, US)
Text:KSHL 240255Z AUTO 34009KT 10SM 03/01 A3017 RMK AO2
Temperature: 3.0°C ( 37°F)
Dewpoint: 1.0°C ( 34°F) [RH = 87%]
Pressure (altimeter):30.17 inches Hg (1021.8 mb)
Winds:from the NNW (340 degrees) at 10 MPH (9 knots; 4.6 m/s)
Visibility:10 or more sm (16+ km)
QC Flag:automated observation with no human augmentation